createdAt,value
2019-05-20T00:02:24.314Z,100389.41
2019-05-20T00:04:45.128Z,100390.05
2019-05-20T00:07:13.751Z,100393.44
2019-05-20T00:09:42.300Z,100386.73
2019-05-20T00:12:10.946Z,100387.13
2019-05-20T00:14:39.514Z,100389.91
2019-05-20T00:17:08.125Z,100398.33
2019-05-20T00:19:36.608Z,100398.47
2019-05-20T00:22:05.296Z,100398.50
2019-05-20T00:24:33.865Z,100395.78
2019-05-20T00:27:02.450Z,100399.81
2019-05-20T00:29:31.023Z,100408.47
2019-05-20T00:31:59.592Z,100401.11
2019-05-20T00:34:35.364Z,100408.45
2019-05-20T00:36:58.461Z,100406.17
2019-05-20T00:39:27.014Z,100409.97
2019-05-20T00:41:55.560Z,100408.47
2019-05-20T00:44:24.180Z,100415.92
2019-05-20T00:46:52.814Z,100411.03
2019-05-20T00:49:21.431Z,100403.91
2019-05-20T00:51:50.047Z,100403.23
2019-05-20T00:54:18.738Z,100401.19
2019-05-20T00:56:49.309Z,100400.71
2019-05-20T00:59:17.849Z,100405.89
2019-05-20T01:01:46.471Z,100405.23
2019-05-20T01:04:15.108Z,100408.38
2019-05-20T01:06:43.665Z,100404.95
2019-05-20T01:09:12.298Z,100405.17
2019-05-20T01:11:40.905Z,100405.03
2019-05-20T01:14:09.549Z,100408.52
2019-05-20T01:16:38.151Z,100404.96
2019-05-20T01:19:06.779Z,100398.38
2019-05-20T01:21:35.273Z,100401.28
2019-05-20T01:24:03.869Z,100401.28
2019-05-20T01:26:32.458Z,100391.87
2019-05-20T01:29:01.030Z,100401.67
2019-05-20T01:31:29.623Z,100400.88
2019-05-20T01:33:58.229Z,100408.50
2019-05-20T01:36:26.851Z,100410.22
2019-05-20T01:38:55.379Z,100411.98
2019-05-20T01:41:24.975Z,100406.43
2019-05-20T01:43:53.577Z,100403.27
2019-05-20T01:46:22.185Z,100405.98
2019-05-20T01:48:50.783Z,100414.17
2019-05-20T01:51:19.417Z,100414.08
2019-05-20T01:53:47.938Z,100412.59
2019-05-20T01:56:16.390Z,100412.43
2019-05-20T01:58:45.027Z,100409.83
2019-05-20T02:01:13.665Z,100403.45
2019-05-20T02:03:42.191Z,100402.45
2019-05-20T02:06:10.696Z,100397.80
2019-05-20T02:08:39.284Z,100392.03
2019-05-20T02:11:07.899Z,100395.01
2019-05-20T02:13:52.970Z,100393.57
2019-05-20T02:16:23.427Z,100399.91
2019-05-20T02:18:52.065Z,100404.58
2019-05-20T02:21:20.802Z,100406.25
2019-05-20T02:23:49.323Z,100418.52
2019-05-20T02:26:17.959Z,100416.36
2019-05-20T02:28:46.555Z,100418.30
2019-05-20T02:31:15.159Z,100423.19
2019-05-20T02:33:51.808Z,100420.58
2019-05-20T02:36:14.078Z,100415.78
2019-05-20T02:38:42.720Z,100420.09
2019-05-20T02:41:11.330Z,100421.25
2019-05-20T02:43:39.985Z,100427.84
2019-05-20T02:46:08.634Z,100436.24
2019-05-20T02:48:37.112Z,100435.08
2019-05-20T02:51:05.757Z,100435.34
2019-05-20T02:53:34.424Z,100430.05
2019-05-20T02:56:02.928Z,100424.13
2019-05-20T02:58:31.599Z,100429.50
2019-05-20T03:01:00.217Z,100423.58
2019-05-20T03:03:28.840Z,100423.36
2019-05-20T03:05:57.459Z,100424.72
2019-05-20T03:08:26.054Z,100421.80
2019-05-20T03:10:54.618Z,100427.25
2019-05-20T03:13:23.241Z,100429.50
2019-05-20T03:15:51.759Z,100428.29
2019-05-20T03:18:20.442Z,100425.31
2019-05-20T03:20:48.969Z,100433.17
2019-05-20T03:23:17.619Z,100433.39
2019-05-20T03:25:46.400Z,100428.10
2019-05-20T03:28:15.199Z,100430.73
2019-05-20T03:30:44.308Z,100433.31
2019-05-20T03:33:12.808Z,100433.95
2019-05-20T03:35:41.400Z,100432.21
2019-05-20T03:38:09.973Z,100431.13
2019-05-20T03:40:38.507Z,100439.23
2019-05-20T03:43:07.100Z,100433.22
2019-05-20T03:45:35.756Z,100436.72
2019-05-20T03:48:04.356Z,100444.11
2019-05-20T03:50:33.110Z,100443.25
2019-05-20T03:53:01.771Z,100439.50
2019-05-20T03:55:30.375Z,100442.32
2019-05-20T03:57:59.028Z,100447.14
2019-05-20T04:00:42.182Z,100447.14
2019-05-20T04:03:10.768Z,100443.45
2019-05-20T04:05:40.152Z,100450.35
2019-05-20T04:08:08.932Z,100451.50
2019-05-20T04:10:37.527Z,100443.82
2019-05-20T04:13:06.112Z,100444.33
2019-05-20T04:15:34.772Z,100449.06
2019-05-20T04:18:03.394Z,100455.53
2019-05-20T04:20:32.005Z,100459.97
2019-05-20T04:23:00.570Z,100460.89
2019-05-20T04:25:29.152Z,100453.73
2019-05-20T04:27:57.853Z,100454.45
2019-05-20T04:30:26.785Z,100450.92
2019-05-20T04:32:55.439Z,100452.86
2019-05-20T04:35:23.998Z,100452.48
2019-05-20T04:37:52.571Z,100454.64
2019-05-20T04:40:21.196Z,100454.52
2019-05-20T04:42:49.806Z,100453.59
2019-05-20T04:45:18.424Z,100459.77
2019-05-20T04:47:46.946Z,100463.43
2019-05-20T04:50:15.686Z,100457.27
2019-05-20T04:52:44.218Z,100451.58
2019-05-20T04:55:12.802Z,100447.34
2019-05-20T04:57:41.363Z,100449.73
2019-05-20T05:00:10.857Z,100453.83
2019-05-20T05:02:43.183Z,100453.72
2019-05-20T05:05:10.089Z,100452.94
2019-05-20T05:07:38.706Z,100454.70
2019-05-20T05:10:10.674Z,100457.03
2019-05-20T05:12:39.244Z,100459.55
2019-05-20T05:15:09.183Z,100462.14
2019-05-20T05:17:37.888Z,100455.66
2019-05-20T05:20:07.885Z,100461.61
2019-05-20T05:22:36.473Z,100463.77
2019-05-20T05:25:07.933Z,100472.84
2019-05-20T05:27:36.545Z,100469.97
2019-05-20T05:30:07.724Z,100467.84
2019-05-20T05:32:42.751Z,100470.16
2019-05-20T05:35:14.319Z,100469.86
2019-05-20T05:37:43.069Z,100467.59
2019-05-20T05:40:12.382Z,100467.84
2019-05-20T05:42:41.017Z,100464.94
2019-05-20T05:45:10.469Z,100464.25
2019-05-20T05:47:39.053Z,100469.50
2019-05-20T05:50:08.092Z,100479.25
2019-05-20T05:52:36.720Z,100479.25
2019-05-20T05:55:06.696Z,100473.97
2019-05-20T05:57:35.295Z,100474.91
2019-05-20T06:00:06.413Z,100477.42
2019-05-20T06:02:34.936Z,100474.40
2019-05-20T06:05:03.858Z,100470.05
2019-05-20T06:07:32.441Z,100473.52
2019-05-20T06:10:01.028Z,100482.20
2019-05-20T06:12:29.585Z,100476.45
2019-05-20T06:14:58.025Z,100479.09
2019-05-20T06:17:26.645Z,100474.09
2019-05-20T06:19:55.288Z,100474.42
2019-05-20T06:22:23.778Z,100470.88
2019-05-20T06:24:52.431Z,100476.30
2019-05-20T06:27:20.928Z,100479.17
2019-05-20T06:29:49.580Z,100486.59
2019-05-20T06:32:18.089Z,100484.78
2019-05-20T06:34:46.693Z,100490.45
2019-05-20T06:37:19.866Z,100490.54
2019-05-20T06:39:51.196Z,100497.27
2019-05-20T06:42:18.859Z,100493.84
2019-05-20T06:44:53.032Z,100490.58
2019-05-20T06:47:17.858Z,100499.55
2019-05-20T06:49:46.398Z,100503.19
2019-05-20T06:52:15.043Z,100502.30
2019-05-20T06:54:43.526Z,100502.72
2019-05-20T06:57:12.237Z,100508.15
2019-05-20T06:59:41.488Z,100509.05
2019-05-20T07:02:10.071Z,100507.23
2019-05-20T07:04:38.622Z,100516.95
2019-05-20T07:07:20.022Z,100516.36
2019-05-20T07:09:37.542Z,100516.45
2019-05-20T07:12:06.248Z,100520.64
2019-05-20T07:14:34.831Z,100524.48
2019-05-20T07:17:03.427Z,100523.30
2019-05-20T07:19:32.026Z,100524.27
2019-05-20T07:22:00.706Z,100532.62
2019-05-20T07:24:29.286Z,100539.19
2019-05-20T07:26:57.931Z,100537.38
2019-05-20T07:29:26.492Z,100538.11
2019-05-20T07:31:54.983Z,100535.17
2019-05-20T07:34:23.426Z,100533.41
2019-05-20T07:37:02.819Z,100536.85
2019-05-20T07:39:22.165Z,100529.63
2019-05-20T07:41:50.786Z,100537.23
2019-05-20T07:44:19.365Z,100540.57
2019-05-20T07:46:48.175Z,100536.48
2019-05-20T07:49:16.814Z,100546.39
2019-05-20T07:51:46.911Z,100534.75
2019-05-20T07:54:16.008Z,100530.59
2019-05-20T07:56:47.362Z,100527.08
2019-05-20T07:59:17.791Z,100531.19
2019-05-20T08:01:46.350Z,100535.85
2019-05-20T08:04:15.195Z,100537.86
2019-05-20T08:06:43.795Z,100538.84
2019-05-20T08:09:12.291Z,100538.39
2019-05-20T08:11:40.873Z,100532.59
2019-05-20T08:14:09.502Z,100538.12
2019-05-20T08:16:38.100Z,100537.11
2019-05-20T08:19:06.717Z,100540.05
2019-05-20T08:21:35.240Z,100546.91
2019-05-20T08:24:04.015Z,100548.42
2019-05-20T08:26:32.678Z,100550.50
2019-05-20T08:29:01.294Z,100555.33
2019-05-20T08:31:30.012Z,100555.53
2019-05-20T08:33:58.650Z,100556.89
2019-05-20T08:36:27.268Z,100556.98
2019-05-20T08:38:55.829Z,100560.16
2019-05-20T08:41:24.489Z,100562.41
2019-05-20T08:43:53.106Z,100566.37
2019-05-20T08:46:21.619Z,100559.41
2019-05-20T08:48:50.378Z,100551.20
2019-05-20T08:51:19.075Z,100556.81
2019-05-20T08:53:47.815Z,100558.23
2019-05-20T08:56:16.551Z,100562.66
2019-05-20T08:58:45.073Z,100563.27
2019-05-20T09:01:13.680Z,100557.98
2019-05-20T09:03:42.305Z,100564.17
2019-05-20T09:06:10.916Z,100563.27
2019-05-20T09:08:39.480Z,100569.10
2019-05-20T09:11:08.116Z,100572.05
2019-05-20T09:13:36.707Z,100571.91
2019-05-20T09:16:05.578Z,100567.98
2019-05-20T09:18:34.150Z,100560.42
2019-05-20T09:21:02.775Z,100569.92
2019-05-20T09:23:31.365Z,100555.98
2019-05-20T09:26:00.431Z,100560.09
2019-05-20T09:28:29.164Z,100564.98
2019-05-20T09:30:57.871Z,100563.26
2019-05-20T09:33:26.488Z,100572.95
2019-05-20T09:35:55.906Z,100567.82
2019-05-20T09:38:24.447Z,100564.98
2019-05-20T09:40:53.070Z,100566.41
2019-05-20T09:43:21.610Z,100555.17
2019-05-20T09:46:05.590Z,100559.28
2019-05-20T09:48:24.686Z,100554.70
2019-05-20T09:50:51.033Z,100558.48
2019-05-20T09:53:19.495Z,100552.27
2019-05-20T09:55:48.134Z,100553.85
2019-05-20T09:58:16.784Z,100554.02
2019-05-20T10:00:46.469Z,100556.98
2019-05-20T10:03:15.060Z,100551.77
2019-05-20T10:05:43.663Z,100555.29
2019-05-20T10:08:12.371Z,100568.12
2019-05-20T10:10:40.977Z,100569.73
2019-05-20T10:13:09.719Z,100566.41
2019-05-20T10:15:38.412Z,100561.17
2019-05-20T10:18:07.293Z,100562.80
2019-05-20T10:20:35.893Z,100570.56
2019-05-20T10:23:04.447Z,100565.39
2019-05-20T10:25:33.153Z,100560.86
2019-05-20T10:28:01.761Z,100564.81
2019-05-20T10:30:31.222Z,100565.87
2019-05-20T10:32:59.806Z,100568.03
2019-05-20T10:35:28.477Z,100564.82
2019-05-20T10:37:57.090Z,100574.95
2019-05-20T10:40:25.726Z,100584.08
2019-05-20T10:42:54.357Z,100583.44
2019-05-20T10:45:23.002Z,100593.53
2019-05-20T10:47:51.576Z,100600.72
2019-05-20T10:50:20.281Z,100593.73
2019-05-20T10:52:48.817Z,100598.53
2019-05-20T10:55:17.548Z,100595.84
2019-05-20T10:57:46.061Z,100587.16
2019-05-20T11:00:14.973Z,100589.59
2019-05-20T11:02:43.526Z,100597.73
2019-05-20T11:05:12.304Z,100600.92
2019-05-20T11:07:40.963Z,100603.75
2019-05-20T11:10:09.958Z,100607.17
2019-05-20T11:12:38.496Z,100605.07
2019-05-20T11:15:07.718Z,100601.48
2019-05-20T11:17:36.313Z,100604.80
2019-05-20T11:20:07.136Z,100597.73
2019-05-20T11:22:35.761Z,100601.22
2019-05-20T11:25:06.151Z,100605.80
2019-05-20T11:27:34.716Z,100607.61
2019-05-20T11:30:04.341Z,100617.55
2019-05-20T11:32:32.959Z,100620.23
2019-05-20T11:35:02.345Z,100622.80
2019-05-20T11:37:32.037Z,100624.66
2019-05-20T11:40:00.692Z,100625.44
2019-05-20T11:42:29.319Z,100627.55
2019-05-20T11:44:57.962Z,100625.22
2019-05-20T11:47:26.672Z,100627.48
2019-05-20T11:49:55.265Z,100625.06
2019-05-20T11:52:23.892Z,100614.13
2019-05-20T11:54:52.499Z,100605.74
2019-05-20T11:57:20.986Z,100614.80
2019-05-20T11:59:49.608Z,100623.02
2019-05-20T12:02:18.179Z,100609.85
2019-05-20T12:04:46.786Z,100612.48
2019-05-20T12:07:15.334Z,100614.48
2019-05-20T12:09:49.693Z,100619.02
2019-05-20T12:12:14.142Z,100608.84
2019-05-20T12:14:42.612Z,100611.86
2019-05-20T12:17:11.166Z,100609.92
2019-05-20T12:19:39.687Z,100598.91
2019-05-20T12:22:08.319Z,100608.70
2019-05-20T12:24:36.902Z,100608.93
2019-05-20T12:27:05.528Z,100606.19
2019-05-20T12:29:34.114Z,100603.58
2019-05-20T12:32:03.658Z,100603.50
2019-05-20T12:34:32.413Z,100607.42
2019-05-20T12:37:00.923Z,100603.30
2019-05-20T12:39:29.552Z,100602.23
2019-05-20T12:41:58.146Z,100606.34
2019-05-20T12:44:26.751Z,100605.25
2019-05-20T12:46:55.465Z,100603.75
2019-05-20T12:49:24.180Z,100606.20
2019-05-20T12:51:52.977Z,100618.09
2019-05-20T12:54:21.419Z,100614.52
2019-05-20T12:56:49.956Z,100616.56
2019-05-20T12:59:18.565Z,100610.53
2019-05-20T13:01:47.124Z,100612.09
2019-05-20T13:04:15.855Z,100607.03
2019-05-20T13:06:44.547Z,100605.27
2019-05-20T13:09:13.153Z,100609.95
2019-05-20T13:11:41.716Z,100612.45
2019-05-20T13:14:10.307Z,100608.19
2019-05-20T13:16:38.831Z,100606.05
2019-05-20T13:19:07.520Z,100608.73
2019-05-20T13:21:36.125Z,100601.58
2019-05-20T13:24:05.038Z,100599.42
2019-05-20T13:26:33.557Z,100598.81
2019-05-20T13:29:02.221Z,100599.97
2019-05-20T13:31:30.814Z,100601.22
2019-05-20T13:33:59.385Z,100595.38
2019-05-20T13:36:27.943Z,100600.12
2019-05-20T13:38:56.427Z,100598.31
2019-05-20T13:41:25.057Z,100597.81
2019-05-20T13:43:53.572Z,100593.71
2019-05-20T13:46:22.228Z,100590.42
2019-05-20T13:48:50.933Z,100589.89
2019-05-20T13:51:19.588Z,100587.05
2019-05-20T13:53:48.135Z,100593.22
2019-05-20T13:56:16.695Z,100598.96
2019-05-20T13:58:45.446Z,100597.28
2019-05-20T14:01:14.116Z,100598.09
2019-05-20T14:03:42.749Z,100598.31
2019-05-20T14:06:11.477Z,100596.34
2019-05-20T14:08:40.042Z,100598.74
2019-05-20T14:11:08.561Z,100601.06
2019-05-20T14:13:37.121Z,100590.31
2019-05-20T14:16:05.766Z,100593.62
2019-05-20T14:18:34.293Z,100595.04
2019-05-20T14:21:02.926Z,100595.70
2019-05-20T14:23:31.507Z,100588.55
2019-05-20T14:25:59.988Z,100591.24
2019-05-20T14:28:28.652Z,100595.43
2019-05-20T14:30:57.589Z,100599.20
2019-05-20T14:33:26.056Z,100599.92
2019-05-20T14:35:54.535Z,100597.30
2019-05-20T14:38:23.162Z,100602.64
2019-05-20T14:40:51.835Z,100599.33
2019-05-20T14:43:20.401Z,100590.73
2019-05-20T14:45:49.094Z,100592.69
2019-05-20T14:48:17.643Z,100587.07
2019-05-20T14:50:46.251Z,100594.91
2019-05-20T14:53:14.738Z,100583.14
2019-05-20T14:55:43.349Z,100583.61
2019-05-20T14:58:12.049Z,100591.38
2019-05-20T15:00:40.680Z,100592.95
2019-05-20T15:03:09.273Z,100591.74
2019-05-20T15:05:37.942Z,100587.49
2019-05-20T15:08:06.620Z,100588.02
2019-05-20T15:10:35.176Z,100588.02
2019-05-20T15:13:04.523Z,100590.18
2019-05-20T15:15:33.348Z,100591.82
2019-05-20T15:18:02.020Z,100593.33
2019-05-20T15:20:30.669Z,100593.13
2019-05-20T15:22:59.239Z,100594.28
2019-05-20T15:25:27.787Z,100595.59
2019-05-20T15:27:56.401Z,100594.28
2019-05-20T15:30:25.016Z,100595.73
2019-05-20T15:32:54.960Z,100587.07
2019-05-20T15:35:23.657Z,100586.89
2019-05-20T15:37:52.231Z,100579.95
2019-05-20T15:40:24.119Z,100582.52
2019-05-20T15:42:51.250Z,100582.52
2019-05-20T15:45:20.009Z,100582.99
2019-05-20T15:47:48.604Z,100576.88
2019-05-20T15:50:17.524Z,100589.47
2019-05-20T15:52:46.117Z,100586.67
2019-05-20T15:55:14.738Z,100587.47
2019-05-20T15:57:43.372Z,100586.14
2019-05-20T16:00:12.259Z,100580.29
2019-05-20T16:02:40.930Z,100577.55
2019-05-20T16:05:09.780Z,100579.41
2019-05-20T16:07:38.264Z,100583.87
2019-05-20T16:10:07.147Z,100578.88
2019-05-20T16:12:35.834Z,100575.05
2019-05-20T16:15:07.049Z,100570.98
2019-05-20T16:17:35.684Z,100578.20
2019-05-20T16:20:07.197Z,100575.40
2019-05-20T16:22:36.076Z,100577.83
2019-05-20T16:25:07.224Z,100583.31
2019-05-20T16:27:35.794Z,100577.19
2019-05-20T16:30:07.693Z,100584.05
2019-05-20T16:32:36.417Z,100586.42
2019-05-20T16:35:07.111Z,100584.75
2019-05-20T16:37:35.645Z,100583.31
2019-05-20T16:40:09.211Z,100583.83
2019-05-20T16:42:37.899Z,100576.69
2019-05-20T16:45:11.581Z,100586.70
2019-05-20T16:47:38.900Z,100575.31
2019-05-20T16:50:09.095Z,100578.36
2019-05-20T16:52:38.365Z,100581.46
2019-05-20T16:55:07.896Z,100587.15
2019-05-20T16:57:36.490Z,100590.05
2019-05-20T17:00:16.134Z,100583.04
2019-05-20T17:02:37.349Z,100578.81
2019-05-20T17:05:06.120Z,100582.09
2019-05-20T17:07:34.693Z,100582.16
2019-05-20T17:10:04.445Z,100583.11
2019-05-20T17:12:33.028Z,100587.20
2019-05-20T17:15:01.659Z,100591.95
2019-05-20T17:17:30.184Z,100593.05
2019-05-20T17:19:58.763Z,100597.16
2019-05-20T17:22:27.312Z,100600.12
2019-05-20T17:24:55.934Z,100603.48
2019-05-20T17:27:24.566Z,100617.27
2019-05-20T17:29:53.287Z,100612.83
2019-05-20T17:32:21.805Z,100614.84
2019-05-20T17:34:50.470Z,100611.50
2019-05-20T17:37:19.095Z,100618.92
2019-05-20T17:39:47.704Z,100617.39
2019-05-20T17:42:16.353Z,100621.70
2019-05-20T17:44:44.936Z,100613.92
2019-05-20T17:47:13.554Z,100614.29
2019-05-20T17:49:42.159Z,100615.34
2019-05-20T17:52:10.770Z,100620.52
2019-05-20T17:54:39.479Z,100621.38
2019-05-20T17:57:08.094Z,100621.92
2019-05-20T17:59:36.727Z,100619.77
2019-05-20T18:02:06.964Z,100625.50
2019-05-20T18:04:36.711Z,100626.50
2019-05-20T18:07:05.350Z,100625.59
2019-05-20T18:09:35.632Z,100624.16
2019-05-20T18:12:04.208Z,100636.26
2019-05-20T18:14:32.767Z,100644.76
2019-05-20T18:17:01.482Z,100650.63
2019-05-20T18:19:29.995Z,100656.97
2019-05-20T18:21:58.638Z,100659.35
2019-05-20T18:24:27.263Z,100654.98
2019-05-20T18:26:55.960Z,100651.38
2019-05-20T18:29:24.665Z,100656.57
2019-05-20T18:31:53.325Z,100659.64
2019-05-20T18:34:21.971Z,100656.79
2019-05-20T18:36:50.569Z,100659.70
2019-05-20T18:39:19.194Z,100657.08
2019-05-20T18:41:47.801Z,100657.95
2019-05-20T18:44:16.316Z,100664.17
2019-05-20T18:46:44.889Z,100658.02
2019-05-20T18:49:13.379Z,100662.38
2019-05-20T18:51:42.085Z,100656.76
2019-05-20T18:54:11.276Z,100661.22
2019-05-20T18:56:39.882Z,100649.16
2019-05-20T18:59:08.383Z,100650.92
2019-05-20T19:01:47.546Z,100657.34
2019-05-20T19:04:07.661Z,100663.45
2019-05-20T19:06:36.222Z,100673.03
2019-05-20T19:09:06.998Z,100666.59
2019-05-20T19:11:35.598Z,100674.27
2019-05-20T19:14:08.151Z,100670.80
2019-05-20T19:16:34.590Z,100663.63
2019-05-20T19:19:03.218Z,100663.13
2019-05-20T19:21:31.835Z,100664.02
2019-05-20T19:24:00.391Z,100665.80
2019-05-20T19:26:29.021Z,100667.57
2019-05-20T19:28:57.639Z,100667.02
2019-05-20T19:31:26.236Z,100668.50
2019-05-20T19:33:54.868Z,100664.18
2019-05-20T19:36:23.432Z,100675.47
2019-05-20T19:38:52.100Z,100672.94
2019-05-20T19:41:20.717Z,100666.75
2019-05-20T19:43:49.275Z,100661.73
2019-05-20T19:46:17.842Z,100667.66
2019-05-20T19:48:46.491Z,100671.52
2019-05-20T19:51:14.971Z,100671.98
2019-05-20T19:53:43.594Z,100681.73
2019-05-20T19:56:12.194Z,100685.85
2019-05-20T19:58:40.822Z,100684.11
2019-05-20T20:01:09.379Z,100684.11
2019-05-20T20:03:38.053Z,100676.19
2019-05-20T20:06:06.644Z,100684.29
2019-05-20T20:08:35.149Z,100682.67
2019-05-20T20:11:03.743Z,100696.13
2019-05-20T20:13:34.528Z,100694.41
2019-05-20T20:16:02.809Z,100688.84
2019-05-20T20:18:31.364Z,100688.72
2019-05-20T20:20:59.926Z,100695.83
2019-05-20T20:23:28.491Z,100705.06
2019-05-20T20:25:57.329Z,100707.30
2019-05-20T20:28:25.919Z,100704.81
2019-05-20T20:30:54.553Z,100708.83
2019-05-20T20:33:23.147Z,100709.59
2019-05-20T20:35:51.769Z,100710.14
2019-05-20T20:38:20.308Z,100709.50
2019-05-20T20:40:48.875Z,100705.97
2019-05-20T20:43:17.412Z,100712.69
2019-05-20T20:45:46.023Z,100710.95
2019-05-20T20:48:14.541Z,100717.75
2019-05-20T20:50:43.373Z,100712.25
2019-05-20T20:53:11.838Z,100707.16
2019-05-20T20:55:40.403Z,100716.62
2019-05-20T20:58:09.034Z,100712.20
2019-05-20T21:00:38.625Z,100723.02
2019-05-20T21:03:07.237Z,100723.02
2019-05-20T21:05:36.030Z,100723.05
2019-05-20T21:08:04.660Z,100730.01
2019-05-20T21:10:33.257Z,100729.42
2019-05-20T21:13:01.824Z,100729.48
2019-05-20T21:15:30.448Z,100734.38
2019-05-20T21:17:59.049Z,100723.69
2019-05-20T21:20:27.639Z,100726.80
2019-05-20T21:22:56.257Z,100721.33
2019-05-20T21:25:24.755Z,100730.64
2019-05-20T21:27:53.325Z,100728.17
2019-05-20T21:30:21.983Z,100732.86
2019-05-20T21:32:50.588Z,100721.36
2019-05-20T21:35:19.227Z,100727.70
2019-05-20T21:37:47.843Z,100723.11
2019-05-20T21:40:16.428Z,100724.18
2019-05-20T21:42:44.983Z,100728.50
2019-05-20T21:45:13.555Z,100728.63
2019-05-20T21:47:44.722Z,100724.28
2019-05-20T21:50:13.085Z,100717.48
2019-05-20T21:52:41.558Z,100722.98
2019-05-20T21:55:10.586Z,100716.52
2019-05-20T21:57:39.490Z,100716.67
2019-05-20T22:00:11.113Z,100716.19
2019-05-20T22:02:39.757Z,100709.72
2019-05-20T22:05:08.580Z,100715.10
2019-05-20T22:07:37.229Z,100711.13
2019-05-20T22:10:06.934Z,100717.70
2019-05-20T22:12:36.424Z,100716.10
2019-05-20T22:15:06.547Z,100721.48
2019-05-20T22:17:35.036Z,100709.97
2019-05-20T22:20:04.782Z,100717.03
2019-05-20T22:22:47.249Z,100715.09
2019-05-20T22:25:15.857Z,100721.57
2019-05-20T22:27:44.313Z,100710.55
2019-05-20T22:30:13.314Z,100724.43
2019-05-20T22:32:41.898Z,100720.20
2019-05-20T22:35:10.510Z,100718.82
2019-05-20T22:37:39.837Z,100714.61
2019-05-20T22:40:08.486Z,100722.28
2019-05-20T22:42:37.158Z,100724.97
2019-05-20T22:45:06.239Z,100710.63
2019-05-20T22:47:34.878Z,100728.97
2019-05-20T22:50:03.992Z,100719.41
2019-05-20T22:52:32.538Z,100731.94
2019-05-20T22:55:01.115Z,100724.56
2019-05-20T22:57:30.223Z,100731.36
2019-05-20T22:59:58.758Z,100734.00
2019-05-20T23:02:27.352Z,100735.02
2019-05-20T23:04:55.967Z,100732.95
2019-05-20T23:07:24.597Z,100743.52
2019-05-20T23:09:53.186Z,100741.15
2019-05-20T23:12:21.802Z,100749.25
2019-05-20T23:14:50.413Z,100749.37
2019-05-20T23:17:28.365Z,100750.25
2019-05-20T23:19:56.920Z,100754.60
2019-05-20T23:22:25.476Z,100751.44
2019-05-20T23:24:53.979Z,100743.12
2019-05-20T23:27:22.508Z,100745.05
2019-05-20T23:29:51.644Z,100745.73
2019-05-20T23:32:20.243Z,100753.64
2019-05-20T23:34:48.733Z,100746.52
2019-05-20T23:37:17.419Z,100747.52
2019-05-20T23:39:45.983Z,100738.84
2019-05-20T23:42:14.673Z,100747.34
2019-05-20T23:44:43.235Z,100755.34
2019-05-20T23:47:11.749Z,100747.70
2019-05-20T23:49:40.988Z,100745.67
2019-05-20T23:52:09.599Z,100735.41
2019-05-20T23:54:38.136Z,100742.52
2019-05-20T23:57:06.753Z,100745.16
2019-05-20T23:59:35.409Z,100746.52
